San Antonio International Airport
KSAT : now visible

Airfield :











YOU CAN JOIN US ON...

 
LOGIN :

Register | Disclaimer

   EN    FR    IT 

 









Legend :    VFR   Marginal VFR   IFR   Intensive IFR   Very Intensive IFR
Visi :
Ceiling :
>= 8 km
>= 3000ft
5 to 8 km
1000 to 3000 ft
1500m to 5 km
500 to 1000 ft
800 to 1500m
200 to 500 ft
< 800m
< 200 ft
Symbols :   Thunderstorms  Fog  Heavy snow  Heavy precipitations  Wind > 20 kt






- Airport Elevation : 809 ft
- IATA code : SAT


KSAT - San Antonio International

EXPIRED METARs :
  • 011551Z VRB03KT 10SM FEW035 FEW250 29/21 A2998 RMK AO2 SLP132 T02940206
  • 012151Z 10009G17KT 10SM SCT080 SCT250 37/18 A2986 RMK AO2 SLP091 T03720178
  • 012051Z 13008KT 10SM FEW075 FEW250 37/18 A2988 RMK AO2 SLP097 TCU DSNT N T03670183 58024
  • 010551Z 14011KT 10SM FEW250 27/22 A2998 RMK AO2 SLP132 T02720222 10356 20272 403670233 51012
  • 011951Z 07008KT 10SM FEW070 FEW250 37/18 A2991 RMK AO2 SLP106 TCU DSNT N T03670183

TAF KSAT
Valid from the 01 at 18:00 until the 03 at 00:00 UTC


011720Z 0118/0224 VRB04KT P6SM SCT060
FM020000 12008KT P6SM FEW060 SCT250
FM021400 18009KT P6SM FEW080
KZHU FIR / North America



MET'MAP, your aeronautical weather chart ! - Copyright ORBIFLY December 2007 - Disclaimer

ORBIFLY MET'MAP TEAM :

Programming & Development : Alexandra Zaïnal
Original concept : Baudouin d'Aumeries
Technical & hardware support : Manuel Goepfert
Assistance : Marc-Olivier Méhu




SOURCES & CREDITS :

   NOAA       Earth
Advisory